ATR 72 остановился на грунте в Катманду

ATR 72-500 непальской авиакомпании Yeti Airlines (YT) съехал на грунт при пробеге в аэропорту Катманду.

Инцидент произошёл 12 июля в 11:06 по местному времени. На борту было 66 пассажиров (включая 2 детей) и 3 члена экипажа; пострадавших нет.

Самолёт под регистрационным номером 9N-AMM (первый полёт 12,2 года назад, выпущен для TransAsia Airways и поменял пользователя лишь однажды) выполнял рейс YT422 из Непалганджа (KEP) в Катаманду (KTM). Приземляясь в аэропорту назначения на ВПП 02, он съехал с твёрдого покрытия и остановился, находясь всеми шасси на мягком грунте в районе рулёжной дорожки D.

Авиалайнер, вероятно, получил минимальные повреждения.

Аэропорт был закрыт для приёма и отправления рейсов примерно на 8 часов после происшествия.


Актуальные показатели METAR

VNKT 120550Z 09016G26KT 2500 RA FEW008 FEW020CB SCT030 OVC090 20/20 Q1009 NOSIG CB TO SE S SW W NE AND OVERHEAD=
VNKT 120520Z 09012KT 2000 RA FEW008 FEW020CB SCT030 OVC090 20/20 Q1008 NOSIG CB TO SE S SW W N NE E AND OHD=
VNKT 120450Z 10013KT 3000 RA FEW008 FEW020CB SCT030 OVC090 20/20 Q1008 NOSIG CB TO SE S SW W N NE E AND OHD=

Происшествия с ATR 42/72

AllATR 72ATR 42
ATR-72 совершил жёсткую посадку в Колумбии

ATR-72 совершил жёсткую посадку в Колумбии

ATR 72-600 авиакомпании Avianca (AV) совершил жёсткую посадку в аэропорту Манисалеса, департамент Кальдас, Колумбия. Прибывший

ATR 72-600 жёстко приземлился в Тегеране

ATR 72-600 жёстко приземлился в Тегеране

ATR 72-600 авиакомпании Iran Air (IR) совершил жёсткую посадку в Тегеране. Призёмляясь на ВПП 29L

Отказавший двигатель вернул ATR 72 авиакомпании Azul в Ресифи

Отказавший двигатель вернул ATR 72 авиакомпании Azul в Ресифи

ATR 72-600 авиакомпании Azul Linhas Aéreas Brasileiras (AD) вернулся в Ресифи из-за отказа двигателя. Вскоре

Индийский ATR 72 не смог убрать шасси в Дели

Индийский ATR 72 не смог убрать шасси в Дели

ATR 72-600 авиакомпании Air India Regional вернулся в столичный аэропорт из-за отказа шасси. Вскоре после

ATR 72-600 авиакомпании Golden Myanmar Airlines растерял колёса в Янгоне

ATR 72-600 авиакомпании Golden Myanmar Airlines растерял колёса в Янгоне

ATR 72-600 авиакомпании Golden Myanmar Airlines (Y5) потерял колёса передних шасси при приземлении в Янгоне.

Чешский ATR 72 без навигации не долетел до Будапешта

Чешский ATR 72 без навигации не долетел до Будапешта

ATR 72-500 авиакомпании Czech Airlines (OK) вернулся в аэропорт вылета из-за отказа навигационной системы. Инцидент

Load More

Авиационные происшествия в аэропорту Катманду

ATR 72 остановился на грунте в Катманду

ATR 72 остановился на грунте в Катманду

ATR 72-500 непальской авиакомпании Yeti Airlines (YT) съехал на грунт при пробеге в аэропорту Катманду.

Bombardier Q400 бангладешской авиакомпании разбился в аэропорту Катманду

Bombardier Q400 бангладешской авиакомпании разбился в аэропорту Катманду

Bombardier Q400 авиакомпании US-Bangla Airlines (BS) потерпел крушение при посадке в аэропорту Трибхуван (KTM) непальской

Load More